createdAt,value
2023-03-26T00:02:19.713Z,89.64
2023-03-26T00:04:46.570Z,89.34
2023-03-26T00:07:15.285Z,89.25
2023-03-26T00:09:42.666Z,89.63
2023-03-26T00:12:11.119Z,89.60
2023-03-26T00:14:40.835Z,89.65
2023-03-26T00:17:17.386Z,89.81
2023-03-26T00:20:09.502Z,89.87
2023-03-26T00:22:36.503Z,89.43
2023-03-26T00:25:06.619Z,90.15
2023-03-26T00:27:34.606Z,90.42
2023-03-26T00:30:03.834Z,89.84
2023-03-26T00:32:31.312Z,89.77
2023-03-26T00:35:24.841Z,89.84
2023-03-26T00:37:58.426Z,89.47
2023-03-26T00:40:26.516Z,89.45
2023-03-26T00:42:54.482Z,89.42
2023-03-26T00:45:23.152Z,89.35
2023-03-26T00:47:56.891Z,88.98
2023-03-26T00:50:26.678Z,89.05
2023-03-26T00:52:55.841Z,88.74
2023-03-26T00:58:51.034Z,89.56
2023-03-26T01:01:27.349Z,89.33
2023-03-26T01:04:21.160Z,89.67
2023-03-26T01:06:51.978Z,89.42
2023-03-26T01:09:24.104Z,89.58
2023-03-26T01:11:52.655Z,90.19
2023-03-26T01:14:28.840Z,89.84
2023-03-26T01:16:59.448Z,89.69
2023-03-26T01:19:45.423Z,89.34
2023-03-26T01:22:21.681Z,89.41
2023-03-26T01:24:53.401Z,90.03
2023-03-26T01:27:48.891Z,89.95
2023-03-26T01:30:37.172Z,90.13
2023-03-26T01:33:14.467Z,89.75
2023-03-26T01:36:01.748Z,89.76
2023-03-26T01:38:31.358Z,89.62
2023-03-26T01:41:00.584Z,89.96
2023-03-26T01:43:37.652Z,89.69
2023-03-26T01:46:07.595Z,89.29
2023-03-26T01:51:35.626Z,89.02
2023-03-26T01:54:06.022Z,88.96
2023-03-26T01:56:42.572Z,88.41
2023-03-26T01:59:32.173Z,88.39
2023-03-26T02:02:17.761Z,88.75
2023-03-26T02:05:34.437Z,88.47
2023-03-26T02:08:35.396Z,88.33
2023-03-26T02:11:05.642Z,88.36
2023-03-26T02:13:59.235Z,88.35
2023-03-26T02:16:26.557Z,88.07
2023-03-26T02:19:26.494Z,88.22
2023-03-26T02:21:59.677Z,88.00
2023-03-26T02:24:28.765Z,87.82
2023-03-26T02:27:22.554Z,88.13
2023-03-26T02:29:55.737Z,87.90
2023-03-26T02:32:29.664Z,87.84
2023-03-26T02:34:56.473Z,87.56
2023-03-26T02:37:24.535Z,88.25
2023-03-26T02:40:04.597Z,87.97
2023-03-26T02:42:32.509Z,88.13
2023-03-26T02:45:00.528Z,88.06
2023-03-26T02:47:46.544Z,88.43
2023-03-26T02:50:36.834Z,88.08
2023-03-26T02:53:30.587Z,88.37
2023-03-26T02:56:22.489Z,88.21
2023-03-26T02:59:14.806Z,88.53
2023-03-26T03:01:46.529Z,88.37
2023-03-26T03:04:17.916Z,88.23
2023-03-26T03:06:46.498Z,88.83
2023-03-26T03:12:43.084Z,88.55
2023-03-26T03:15:11.011Z,88.12
2023-03-26T03:18:02.693Z,88.26
2023-03-26T03:20:35.131Z,88.45
2023-03-26T03:23:11.079Z,88.31
2023-03-26T03:25:40.969Z,88.70
2023-03-26T03:28:15.227Z,88.61
2023-03-26T03:30:42.813Z,88.53
2023-03-26T03:33:36.779Z,88.21
2023-03-26T03:36:20.140Z,87.99
2023-03-26T03:39:05.133Z,88.11
2023-03-26T03:41:37.485Z,88.06
2023-03-26T03:44:10.875Z,87.91
2023-03-26T03:46:38.553Z,87.73
2023-03-26T03:49:06.608Z,87.82
2023-03-26T03:51:38.522Z,87.46
2023-03-26T03:54:14.541Z,87.46
2023-03-26T03:56:49.032Z,87.27
2023-03-26T03:59:49.188Z,87.85
2023-03-26T04:02:26.084Z,87.72
2023-03-26T04:04:58.620Z,88.16
2023-03-26T04:07:28.283Z,87.76
2023-03-26T04:10:14.677Z,87.50
2023-03-26T04:13:13.539Z,87.89
2023-03-26T04:16:00.729Z,87.60
2023-03-26T04:18:30.250Z,87.66
2023-03-26T04:21:03.306Z,87.70
2023-03-26T04:23:36.617Z,87.57
2023-03-26T04:26:16.900Z,87.46
2023-03-26T04:29:06.220Z,87.53
2023-03-26T04:31:58.810Z,87.31
2023-03-26T04:34:26.557Z,87.22
2023-03-26T04:37:06.520Z,87.16
2023-03-26T04:39:40.481Z,86.99
2023-03-26T04:42:33.293Z,86.78
2023-03-26T04:45:14.171Z,86.68
2023-03-26T04:47:42.582Z,86.72
2023-03-26T04:53:28.480Z,87.86
2023-03-26T04:56:40.637Z,87.39
2023-03-26T04:59:34.318Z,87.39
2023-03-26T05:02:06.176Z,87.08
2023-03-26T05:04:43.903Z,87.37
2023-03-26T05:07:17.588Z,87.31
2023-03-26T05:10:02.045Z,87.24
2023-03-26T05:12:38.468Z,87.15
2023-03-26T05:15:17.082Z,87.01
2023-03-26T05:18:04.696Z,86.89
2023-03-26T05:20:38.721Z,86.83
2023-03-26T05:23:12.531Z,86.78
2023-03-26T05:25:52.137Z,86.77
2023-03-26T05:28:27.460Z,86.70
2023-03-26T05:31:23.855Z,86.41
2023-03-26T05:33:55.026Z,86.79
2023-03-26T05:36:23.139Z,86.52
2023-03-26T05:39:16.547Z,86.63
2023-03-26T05:42:07.841Z,86.68
2023-03-26T05:48:23.300Z,86.75
2023-03-26T05:50:52.161Z,86.88
2023-03-26T05:53:27.531Z,87.45
2023-03-26T05:56:18.632Z,87.26
2023-03-26T05:59:15.524Z,87.28
2023-03-26T06:02:06.560Z,87.40
2023-03-26T06:04:41.170Z,87.25
2023-03-26T06:07:35.121Z,87.29
2023-03-26T06:10:17.929Z,87.48
2023-03-26T06:12:51.552Z,87.30
2023-03-26T06:15:20.584Z,87.33
2023-03-26T06:21:14.013Z,87.29
2023-03-26T06:23:51.736Z,86.88
2023-03-26T06:26:40.669Z,86.64
2023-03-26T06:29:31.990Z,86.83
2023-03-26T06:32:23.167Z,87.25
2023-03-26T06:35:06.253Z,87.59
2023-03-26T06:40:50.489Z,86.88
2023-03-26T06:43:39.086Z,86.75
2023-03-26T06:49:52.582Z,86.91
2023-03-26T06:52:40.696Z,86.91
2023-03-26T06:55:26.888Z,86.68
2023-03-26T06:58:13.321Z,86.59
2023-03-26T07:01:07.076Z,86.85
2023-03-26T07:04:11.089Z,86.35
2023-03-26T07:06:56.521Z,86.59
2023-03-26T07:09:42.472Z,85.52
2023-03-26T07:12:28.510Z,85.69
2023-03-26T07:15:30.696Z,85.32
2023-03-26T07:18:16.552Z,83.12
2023-03-26T07:20:47.175Z,82.99
2023-03-26T07:23:19.985Z,83.17
2023-03-26T07:29:26.742Z,81.33
2023-03-26T07:32:47.540Z,80.58
2023-03-26T07:35:39.243Z,81.05
2023-03-26T07:38:38.149Z,80.44
2023-03-26T07:41:31.755Z,81.91
2023-03-26T07:44:30.427Z,79.87
2023-03-26T07:47:28.431Z,82.36
2023-03-26T07:50:18.485Z,82.86
2023-03-26T07:53:02.783Z,80.43
2023-03-26T07:56:06.111Z,82.41
2023-03-26T07:59:05.540Z,81.82
2023-03-26T08:01:56.543Z,81.42
2023-03-26T08:04:46.685Z,79.93
2023-03-26T08:08:09.117Z,81.87
2023-03-26T08:11:09.513Z,81.27
2023-03-26T08:14:05.571Z,79.55
2023-03-26T08:16:54.344Z,79.81
2023-03-26T08:19:38.661Z,78.95
2023-03-26T08:22:20.826Z,79.69
2023-03-26T08:25:19.510Z,80.41
2023-03-26T08:27:52.234Z,80.48
2023-03-26T08:30:29.004Z,78.94
2023-03-26T08:33:13.493Z,76.74
2023-03-26T08:35:47.963Z,78.01
2023-03-26T08:38:19.341Z,76.75
2023-03-26T08:41:26.187Z,78.17
2023-03-26T08:44:32.077Z,75.31
2023-03-26T08:47:55.668Z,78.58
2023-03-26T08:50:52.824Z,78.44
2023-03-26T08:53:35.619Z,75.36
2023-03-26T08:56:43.006Z,74.28
2023-03-26T08:59:28.057Z,73.38
2023-03-26T09:02:31.685Z,74.69
2023-03-26T09:05:21.897Z,73.08
2023-03-26T09:08:30.040Z,73.19
2023-03-26T09:11:40.830Z,71.28
2023-03-26T09:14:24.268Z,74.36
2023-03-26T09:17:01.322Z,72.38
2023-03-26T09:19:57.494Z,72.86
2023-03-26T09:22:32.596Z,72.77
2023-03-26T09:25:35.115Z,72.06
2023-03-26T09:28:33.684Z,71.25
2023-03-26T09:31:13.302Z,69.67
2023-03-26T09:34:21.085Z,71.50
2023-03-26T09:36:55.534Z,72.44
2023-03-26T09:39:50.999Z,70.38
2023-03-26T09:42:30.759Z,69.83
2023-03-26T09:45:08.940Z,69.51
2023-03-26T09:48:05.449Z,70.84
2023-03-26T09:51:03.001Z,67.76
2023-03-26T09:53:59.341Z,69.67
2023-03-26T09:56:52.568Z,67.27
2023-03-26T09:59:34.298Z,69.48
2023-03-26T10:02:23.428Z,69.90
2023-03-26T10:05:51.661Z,72.34
2023-03-26T10:08:32.215Z,70.85
2023-03-26T10:11:37.566Z,70.05
2023-03-26T10:14:42.478Z,68.37
2023-03-26T10:17:25.499Z,69.68
2023-03-26T10:20:11.146Z,66.62
2023-03-26T10:22:56.225Z,67.70
2023-03-26T10:26:18.328Z,65.53
2023-03-26T10:29:34.683Z,65.81
2023-03-26T10:32:35.356Z,65.70
2023-03-26T10:35:41.333Z,64.50
2023-03-26T10:38:24.268Z,65.54
2023-03-26T10:41:05.944Z,67.33
2023-03-26T10:44:08.560Z,64.09
2023-03-26T10:47:41.828Z,66.23
2023-03-26T10:50:30.762Z,66.57
2023-03-26T10:53:11.417Z,64.93
2023-03-26T10:55:41.582Z,62.81
2023-03-26T10:58:24.138Z,63.42
2023-03-26T11:01:04.794Z,62.09
2023-03-26T11:03:55.624Z,64.87
2023-03-26T11:06:42.082Z,66.10
2023-03-26T11:09:16.437Z,65.57
2023-03-26T11:11:57.192Z,63.47
2023-03-26T11:15:13.449Z,64.18
2023-03-26T11:17:58.476Z,60.73
2023-03-26T11:24:28.693Z,63.70
2023-03-26T11:27:22.621Z,65.51
2023-03-26T11:33:06.397Z,64.07
2023-03-26T11:35:43.564Z,62.98
2023-03-26T11:38:26.393Z,63.34
2023-03-26T11:40:57.777Z,64.18
2023-03-26T11:44:05.343Z,62.64
2023-03-26T11:46:38.891Z,62.18
2023-03-26T11:49:11.179Z,61.72
2023-03-26T11:51:40.090Z,64.47
2023-03-26T11:54:12.374Z,61.73
2023-03-26T11:57:04.733Z,64.65
2023-03-26T11:59:56.992Z,61.20
2023-03-26T12:02:41.479Z,61.52
2023-03-26T12:05:49.044Z,62.02
2023-03-26T12:08:33.186Z,63.23
2023-03-26T12:11:12.244Z,62.51
2023-03-26T12:13:44.747Z,61.90
2023-03-26T12:16:16.372Z,61.82
2023-03-26T12:18:46.514Z,60.50
2023-03-26T12:21:19.786Z,62.10
2023-03-26T12:24:05.513Z,62.36
2023-03-26T12:26:44.847Z,62.76
2023-03-26T12:32:14.429Z,60.69
2023-03-26T12:34:43.117Z,61.50
2023-03-26T12:37:40.783Z,60.01
2023-03-26T12:40:28.079Z,61.55
2023-03-26T12:44:50.582Z,63.47
2023-03-26T12:47:15.056Z,62.82
2023-03-26T12:48:42.814Z,60.38
2023-03-26T12:51:58.533Z,63.77
2023-03-26T12:55:12.008Z,63.29
2023-03-26T12:58:13.777Z,61.99
2023-03-26T13:01:07.946Z,60.24
2023-03-26T13:03:48.057Z,62.28
2023-03-26T13:06:59.588Z,64.25
2023-03-26T13:09:34.367Z,63.63
2023-03-26T13:12:06.953Z,65.12
2023-03-26T13:14:56.601Z,63.31
2023-03-26T13:17:47.014Z,63.82
2023-03-26T13:20:41.972Z,61.00
2023-03-26T13:23:33.829Z,62.98
2023-03-26T13:26:12.786Z,63.03
2023-03-26T13:35:24.289Z,56.78
2023-03-26T13:38:04.372Z,60.82
2023-03-26T13:40:52.817Z,59.71
2023-03-26T13:43:26.482Z,61.06
2023-03-26T13:46:19.856Z,60.42
2023-03-26T13:49:10.489Z,61.23
2023-03-26T13:52:05.285Z,59.47
2023-03-26T13:54:37.395Z,60.25
2023-03-26T13:57:12.533Z,61.13
2023-03-26T13:59:48.029Z,60.44
2023-03-26T14:02:30.585Z,61.97
2023-03-26T14:05:21.684Z,61.32
2023-03-26T14:07:57.242Z,63.20
2023-03-26T14:10:31.277Z,61.56
2023-03-26T14:16:19.169Z,63.31
2023-03-26T14:18:56.152Z,61.53
2023-03-26T14:21:55.856Z,61.72
2023-03-26T14:24:46.543Z,62.92
2023-03-26T14:27:21.815Z,63.25
2023-03-26T14:29:59.535Z,61.86
2023-03-26T14:32:43.881Z,62.25
2023-03-26T14:35:28.224Z,61.12
2023-03-26T14:38:49.169Z,62.42
2023-03-26T14:41:56.840Z,60.94
2023-03-26T14:44:48.177Z,60.27
2023-03-26T14:48:02.951Z,59.97
2023-03-26T14:50:54.469Z,60.39
2023-03-26T14:53:35.690Z,61.91
2023-03-26T14:56:15.655Z,62.99
2023-03-26T14:59:03.570Z,62.01
2023-03-26T15:02:01.088Z,60.48
2023-03-26T15:04:53.026Z,60.73
2023-03-26T15:07:51.420Z,59.58
2023-03-26T15:10:40.184Z,61.72
2023-03-26T15:13:39.437Z,59.24
2023-03-26T15:16:17.855Z,60.41
2023-03-26T15:19:12.013Z,61.09
2023-03-26T15:22:02.629Z,61.73
2023-03-26T15:24:43.014Z,59.88
2023-03-26T15:27:24.352Z,61.63
2023-03-26T15:33:39.117Z,59.32
2023-03-26T15:36:18.268Z,61.11
2023-03-26T15:39:05.232Z,61.51
2023-03-26T15:42:15.825Z,59.00
2023-03-26T15:45:08.829Z,58.87
2023-03-26T15:51:24.512Z,57.07
2023-03-26T15:54:00.044Z,57.91
2023-03-26T15:56:34.298Z,60.19
2023-03-26T15:59:17.365Z,59.37
2023-03-26T16:01:47.416Z,59.54
2023-03-26T16:04:38.708Z,58.93
2023-03-26T16:07:30.412Z,60.46
2023-03-26T16:13:47.971Z,61.02
2023-03-26T16:17:03.009Z,61.90
2023-03-26T16:19:56.297Z,59.75
2023-03-26T16:23:16.064Z,61.46
2023-03-26T16:26:00.384Z,60.68
2023-03-26T16:28:34.161Z,61.61
2023-03-26T16:31:38.619Z,63.09
2023-03-26T16:34:08.926Z,62.17
2023-03-26T16:37:00.674Z,59.70
2023-03-26T16:39:40.984Z,60.73
2023-03-26T16:42:32.365Z,62.05
2023-03-26T16:45:17.497Z,61.97
2023-03-26T16:48:03.083Z,63.09
2023-03-26T16:51:05.892Z,63.02
2023-03-26T16:54:11.457Z,61.08
2023-03-26T16:57:23.020Z,62.04
2023-03-26T17:00:07.775Z,63.67
2023-03-26T17:03:25.513Z,64.08
2023-03-26T17:05:56.537Z,65.19
2023-03-26T17:12:04.728Z,65.64
2023-03-26T17:14:56.528Z,65.29
2023-03-26T17:18:06.195Z,64.95
2023-03-26T17:20:48.815Z,65.34
2023-03-26T17:23:39.634Z,66.07
2023-03-26T17:26:41.487Z,66.68
2023-03-26T17:29:17.132Z,66.47
2023-03-26T17:32:16.336Z,63.80
2023-03-26T17:35:04.322Z,64.92
2023-03-26T17:37:40.896Z,64.98
2023-03-26T17:40:30.275Z,65.03
2023-03-26T17:43:06.302Z,66.96
2023-03-26T17:46:03.124Z,65.95
2023-03-26T17:48:36.786Z,66.15
2023-03-26T17:51:26.438Z,66.67
2023-03-26T17:53:59.424Z,65.70
2023-03-26T17:56:29.860Z,67.01
2023-03-26T17:59:11.917Z,67.73
2023-03-26T18:01:44.113Z,66.86
2023-03-26T18:04:24.574Z,67.62
2023-03-26T18:06:52.438Z,68.85
2023-03-26T18:10:22.141Z,67.96
2023-03-26T18:13:04.596Z,69.16
2023-03-26T18:16:21.164Z,69.59
2023-03-26T18:19:26.317Z,69.09
2023-03-26T18:22:04.093Z,68.79
2023-03-26T18:24:37.539Z,69.74
2023-03-26T18:27:12.446Z,68.32
2023-03-26T18:29:46.207Z,69.40
2023-03-26T18:32:22.199Z,70.10
2023-03-26T18:35:20.393Z,69.76
2023-03-26T18:37:53.260Z,69.64
2023-03-26T18:43:35.083Z,67.93
2023-03-26T18:46:04.039Z,68.27
2023-03-26T18:49:05.312Z,70.46
2023-03-26T18:54:25.865Z,69.17
2023-03-26T18:56:58.834Z,67.42
2023-03-26T18:59:32.369Z,67.22
2023-03-26T19:02:26.950Z,68.01
2023-03-26T19:04:58.707Z,66.58
2023-03-26T19:07:30.820Z,66.85
2023-03-26T19:10:00.307Z,66.41
2023-03-26T19:12:33.921Z,67.93
2023-03-26T19:15:11.928Z,67.52
2023-03-26T19:17:45.074Z,67.65
2023-03-26T19:20:39.939Z,67.45
2023-03-26T19:23:16.046Z,66.52
2023-03-26T19:25:48.270Z,66.06
2023-03-26T19:28:20.843Z,65.76
2023-03-26T19:30:53.884Z,65.76
2023-03-26T19:33:34.068Z,67.68
2023-03-26T19:36:26.201Z,67.31
2023-03-26T19:39:07.904Z,66.03
2023-03-26T19:41:43.601Z,65.70
2023-03-26T19:44:28.538Z,63.77
2023-03-26T19:47:13.588Z,64.79
2023-03-26T19:49:49.681Z,64.92
2023-03-26T19:52:32.799Z,63.50
2023-03-26T19:55:19.815Z,63.11
2023-03-26T19:57:47.425Z,64.42
2023-03-26T20:00:15.039Z,64.01
2023-03-26T20:02:46.259Z,64.43
2023-03-26T20:05:26.231Z,63.65
2023-03-26T20:07:57.553Z,62.63
2023-03-26T20:10:24.760Z,62.38
2023-03-26T20:13:18.338Z,63.05
2023-03-26T20:16:05.940Z,62.30
2023-03-26T20:18:35.166Z,65.18
2023-03-26T20:21:12.151Z,60.01
2023-03-26T20:23:40.923Z,62.01
2023-03-26T20:26:19.116Z,61.92
2023-03-26T20:28:52.594Z,61.35
2023-03-26T20:31:53.405Z,61.57
2023-03-26T20:34:34.743Z,60.08
2023-03-26T20:37:02.738Z,61.88
2023-03-26T20:39:30.937Z,61.43
2023-03-26T20:42:24.679Z,63.49
2023-03-26T20:44:53.165Z,62.93
2023-03-26T20:47:26.546Z,62.64
2023-03-26T20:49:56.148Z,60.87
2023-03-26T20:52:25.555Z,63.20
2023-03-26T20:54:53.072Z,64.65
2023-03-26T20:57:20.697Z,63.92
2023-03-26T20:59:50.918Z,62.77
2023-03-26T21:02:24.679Z,62.62
2023-03-26T21:04:57.300Z,60.15
2023-03-26T21:07:52.700Z,63.26
2023-03-26T21:10:21.381Z,59.76
2023-03-26T21:13:31.059Z,66.39
2023-03-26T21:16:00.472Z,63.11
2023-03-26T21:18:54.874Z,62.52
2023-03-26T21:21:46.357Z,65.90
2023-03-26T21:24:25.343Z,65.61
2023-03-26T21:27:12.558Z,63.90
2023-03-26T21:29:45.938Z,62.36
2023-03-26T21:32:14.778Z,65.26
2023-03-26T21:34:55.424Z,64.06
2023-03-26T21:37:27.491Z,67.48
2023-03-26T21:39:54.893Z,68.07
2023-03-26T21:42:31.636Z,67.02
2023-03-26T21:45:01.899Z,64.93
2023-03-26T21:47:34.911Z,68.11
2023-03-26T21:50:03.754Z,65.42
2023-03-26T21:52:31.856Z,65.57
2023-03-26T21:55:03.560Z,65.44
2023-03-26T21:58:04.330Z,66.91
2023-03-26T22:00:44.202Z,66.88
2023-03-26T22:03:32.666Z,67.72
2023-03-26T22:06:10.500Z,68.08
2023-03-26T22:11:34.460Z,66.06
2023-03-26T22:14:07.809Z,66.80
2023-03-26T22:16:34.528Z,68.99
2023-03-26T22:19:10.746Z,66.28
2023-03-26T22:21:38.825Z,69.03
2023-03-26T22:24:07.543Z,67.09
2023-03-26T22:26:37.353Z,68.10
2023-03-26T22:29:05.297Z,68.71
2023-03-26T22:31:37.881Z,66.24
2023-03-26T22:34:07.566Z,69.25
2023-03-26T22:36:35.128Z,67.30
2023-03-26T22:39:02.552Z,69.87
2023-03-26T22:41:30.571Z,70.36
2023-03-26T22:44:09.379Z,70.39
2023-03-26T22:46:49.269Z,70.02
2023-03-26T22:49:17.564Z,67.37
2023-03-26T22:51:44.510Z,70.72
2023-03-26T22:54:21.494Z,70.53
2023-03-26T22:56:55.781Z,68.89
2023-03-26T22:59:28.828Z,70.69
2023-03-26T23:01:58.217Z,69.96
2023-03-26T23:04:32.256Z,71.35
2023-03-26T23:07:00.702Z,71.49
2023-03-26T23:09:53.758Z,71.67
2023-03-26T23:12:20.528Z,71.03
2023-03-26T23:14:52.890Z,70.22
2023-03-26T23:17:23.896Z,70.64
2023-03-26T23:19:52.498Z,72.54
2023-03-26T23:25:17.624Z,72.46
2023-03-26T23:27:44.598Z,72.69
2023-03-26T23:30:18.342Z,72.67
2023-03-26T23:32:47.034Z,72.08
2023-03-26T23:35:25.584Z,72.76
2023-03-26T23:37:52.554Z,71.06
2023-03-26T23:43:12.832Z,72.20
2023-03-26T23:45:40.678Z,71.62
2023-03-26T23:48:11.485Z,70.91
2023-03-26T23:50:38.458Z,73.16
2023-03-26T23:53:14.664Z,71.58
2023-03-26T23:55:48.441Z,71.98
2023-03-26T23:58:20.902Z,73.44
